createdAt,value
2017-10-20T00:00:03.648Z,98.67
2017-10-20T00:02:32.106Z,100.40
2017-10-20T00:05:00.585Z,90.30
2017-10-20T00:07:29.816Z,107.53
2017-10-20T00:09:58.285Z,96.07
2017-10-20T00:12:26.780Z,98.03
2017-10-20T00:14:55.278Z,102.00
2017-10-20T00:17:23.723Z,94.70
2017-10-20T00:19:52.228Z,100.63
2017-10-20T00:22:20.709Z,103.10
2017-10-20T00:24:49.166Z,103.70
2017-10-20T00:27:17.633Z,99.43
2017-10-20T00:29:46.854Z,100.43
2017-10-20T00:32:15.325Z,105.03
2017-10-20T00:34:43.835Z,106.37
2017-10-20T00:37:12.309Z,108.00
2017-10-20T00:39:40.760Z,100.80
2017-10-20T00:42:10.004Z,99.80
2017-10-20T00:44:38.462Z,101.13
2017-10-20T00:47:06.934Z,107.17
2017-10-20T00:49:35.381Z,105.27
2017-10-20T00:52:03.858Z,97.77
2017-10-20T00:54:32.309Z,103.90
2017-10-20T00:57:00.810Z,104.63
2017-10-20T00:59:29.261Z,101.47
2017-10-20T01:01:57.709Z,108.67
2017-10-20T01:04:27.049Z,107.27
2017-10-20T01:06:55.498Z,102.43
2017-10-20T01:09:24.834Z,112.67
2017-10-20T01:11:53.281Z,106.17
2017-10-20T01:14:22.519Z,112.47
2017-10-20T01:16:51.006Z,112.57
2017-10-20T01:19:19.483Z,108.77
2017-10-20T01:21:47.965Z,109.67
2017-10-20T01:24:16.555Z,114.77
2017-10-20T01:26:45.032Z,111.93
2017-10-20T01:29:13.508Z,106.30
2017-10-20T01:31:41.958Z,101.20
2017-10-20T01:34:11.202Z,107.93
2017-10-20T01:36:39.652Z,115.30
2017-10-20T01:39:08.118Z,107.37
2017-10-20T01:41:37.335Z,107.07
2017-10-20T01:44:05.812Z,111.57
2017-10-20T01:46:34.327Z,101.50
2017-10-20T01:49:02.806Z,109.83
2017-10-20T01:51:31.258Z,105.00
2017-10-20T01:53:59.725Z,112.33
2017-10-20T01:56:28.938Z,108.40
2017-10-20T01:58:57.445Z,110.73
2017-10-20T02:01:26.034Z,110.00
2017-10-20T02:03:54.476Z,112.07
2017-10-20T02:06:23.720Z,110.03
2017-10-20T02:08:52.164Z,116.10
2017-10-20T02:11:21.395Z,115.93
2017-10-20T02:13:49.850Z,105.03
2017-10-20T02:16:18.321Z,109.20
2017-10-20T02:18:47.536Z,101.37
2017-10-20T02:21:16.011Z,114.33
2017-10-20T02:23:44.460Z,119.87
2017-10-20T02:26:12.941Z,107.37
2017-10-20T02:28:41.486Z,111.20
2017-10-20T02:31:09.959Z,112.17
2017-10-20T02:33:38.411Z,112.90
2017-10-20T02:36:07.641Z,112.87
2017-10-20T02:38:36.139Z,113.73
2017-10-20T02:41:04.715Z,106.30
2017-10-20T02:43:33.199Z,108.50
2017-10-20T02:46:01.645Z,106.67
2017-10-20T02:48:30.880Z,103.70
2017-10-20T02:50:59.339Z,108.00
2017-10-20T02:53:27.850Z,106.07
2017-10-20T02:55:56.297Z,107.10
2017-10-20T02:58:24.764Z,109.57
2017-10-20T03:00:54.001Z,106.17
2017-10-20T03:03:22.483Z,105.17
2017-10-20T03:05:50.938Z,108.50
2017-10-20T03:08:20.173Z,104.73
2017-10-20T03:10:48.653Z,107.93
2017-10-20T03:13:17.236Z,110.50
2017-10-20T03:15:45.686Z,116.20
2017-10-20T03:18:15.019Z,109.47
2017-10-20T03:20:43.460Z,111.67
2017-10-20T03:23:12.713Z,106.40
2017-10-20T03:25:41.161Z,107.33
2017-10-20T03:28:09.659Z,111.60
2017-10-20T03:30:38.135Z,113.37
2017-10-20T03:33:06.630Z,113.80
2017-10-20T03:35:35.219Z,116.00
2017-10-20T03:38:03.673Z,113.60
2017-10-20T03:40:32.136Z,113.73
2017-10-20T03:43:01.376Z,115.03
2017-10-20T03:45:29.962Z,114.57
2017-10-20T03:47:58.437Z,109.00
2017-10-20T03:50:26.909Z,116.27
2017-10-20T03:52:55.348Z,102.30
2017-10-20T03:55:23.817Z,111.17
2017-10-20T03:57:52.366Z,107.77
2017-10-20T04:00:20.842Z,109.63
2017-10-20T04:02:49.297Z,108.43
2017-10-20T04:05:18.524Z,106.57
2017-10-20T04:07:46.965Z,99.17
2017-10-20T04:10:16.203Z,101.13
2017-10-20T04:12:44.659Z,103.43
2017-10-20T04:15:13.898Z,104.63
2017-10-20T04:17:42.350Z,94.30
2017-10-20T04:20:10.860Z,100.13
2017-10-20T04:22:39.330Z,102.67
2017-10-20T04:25:07.823Z,110.90
2017-10-20T04:27:36.294Z,99.57
2017-10-20T04:30:04.746Z,105.20
2017-10-20T04:32:34.086Z,104.20
2017-10-20T04:35:02.538Z,108.43
2017-10-20T04:37:31.782Z,108.77
2017-10-20T04:40:00.254Z,108.73
2017-10-20T04:42:28.731Z,105.10
2017-10-20T04:44:57.181Z,99.43
2017-10-20T04:47:26.449Z,100.77
2017-10-20T04:49:54.896Z,105.87
2017-10-20T04:52:23.481Z,103.30
2017-10-20T04:54:51.963Z,98.33
2017-10-20T04:57:20.437Z,104.07
2017-10-20T04:59:49.032Z,107.23
2017-10-20T05:02:18.396Z,107.27
2017-10-20T05:04:47.633Z,100.00
2017-10-20T05:07:16.086Z,101.90
2017-10-20T05:09:44.563Z,100.93
2017-10-20T05:12:13.778Z,97.23
2017-10-20T05:14:42.253Z,101.30
2017-10-20T05:17:10.706Z,96.80
2017-10-20T05:19:39.937Z,98.47
2017-10-20T05:22:08.390Z,99.97
2017-10-20T05:24:37.629Z,97.40
2017-10-20T05:27:06.073Z,98.07
2017-10-20T05:29:35.320Z,100.47
2017-10-20T05:32:03.803Z,99.63
2017-10-20T05:34:32.275Z,103.90
2017-10-20T05:37:00.766Z,98.80
2017-10-20T05:39:29.341Z,98.03
2017-10-20T05:41:57.793Z,100.50
2017-10-20T05:44:27.020Z,102.63
2017-10-20T05:46:55.498Z,97.27
2017-10-20T05:49:23.958Z,98.23
2017-10-20T05:51:53.194Z,97.50
2017-10-20T05:54:24.001Z,95.53
2017-10-20T05:56:52.505Z,101.03
2017-10-20T05:59:21.918Z,105.10
2017-10-20T06:01:50.498Z,101.20
2017-10-20T06:04:18.986Z,96.43
2017-10-20T06:06:47.454Z,93.53
2017-10-20T06:09:15.943Z,92.30
2017-10-20T06:11:44.414Z,95.67
2017-10-20T06:14:12.853Z,93.43
2017-10-20T06:16:41.320Z,97.97
2017-10-20T06:19:09.765Z,93.30
2017-10-20T06:21:38.221Z,83.40
2017-10-20T06:24:07.457Z,99.20
2017-10-20T06:26:35.900Z,92.30
2017-10-20T06:29:05.130Z,101.80
2017-10-20T06:31:33.573Z,96.40
2017-10-20T06:34:02.806Z,92.03
2017-10-20T06:36:31.249Z,95.80
2017-10-20T06:39:00.482Z,92.80
2017-10-20T06:41:28.980Z,83.90
2017-10-20T06:43:57.450Z,89.47
2017-10-20T06:46:25.902Z,88.20
2017-10-20T06:48:55.133Z,88.57
2017-10-20T06:51:23.582Z,87.13
2017-10-20T06:53:52.925Z,86.93
2017-10-20T06:56:21.370Z,83.97
2017-10-20T06:58:50.597Z,88.73
2017-10-20T07:01:19.046Z,89.93
2017-10-20T07:03:48.390Z,89.60
2017-10-20T07:06:16.833Z,86.47
2017-10-20T07:08:46.071Z,90.53
2017-10-20T07:11:14.655Z,78.30
2017-10-20T07:13:43.143Z,84.50
2017-10-20T07:16:11.615Z,83.40
2017-10-20T07:18:50.893Z,80.37
2017-10-20T07:21:19.366Z,84.70
2017-10-20T07:23:47.814Z,77.47
2017-10-20T07:26:16.402Z,76.30
2017-10-20T07:28:44.869Z,76.57
2017-10-20T07:31:13.332Z,74.17
2017-10-20T07:33:42.536Z,84.03
2017-10-20T07:36:11.769Z,72.23
2017-10-20T07:38:40.220Z,73.40
2017-10-20T07:41:08.685Z,76.60
2017-10-20T07:43:37.888Z,74.00
2017-10-20T07:46:07.123Z,74.50
2017-10-20T07:48:35.571Z,69.17
2017-10-20T07:51:04.807Z,70.63
2017-10-20T07:53:33.259Z,71.90
2017-10-20T07:56:01.738Z,68.10
2017-10-20T07:58:30.210Z,65.90
2017-10-20T08:00:59.557Z,64.90
2017-10-20T08:03:28.002Z,67.00
2017-10-20T08:05:57.217Z,68.13
2017-10-20T08:08:25.684Z,65.00
2017-10-20T08:10:54.899Z,64.07
2017-10-20T08:13:23.380Z,66.50
2017-10-20T08:15:51.881Z,51.80
2017-10-20T08:18:21.199Z,60.97
2017-10-20T08:20:49.659Z,64.43
2017-10-20T08:23:18.129Z,61.67
2017-10-20T08:25:46.573Z,58.83
2017-10-20T08:28:15.861Z,61.87
2017-10-20T08:30:44.311Z,59.80
2017-10-20T08:33:12.927Z,61.40
2017-10-20T08:35:41.375Z,59.77
2017-10-20T08:38:09.849Z,55.43
2017-10-20T08:40:38.306Z,54.93
2017-10-20T08:43:07.542Z,52.20
2017-10-20T08:45:35.991Z,59.33
2017-10-20T08:48:04.498Z,51.43
2017-10-20T08:50:32.991Z,55.50
2017-10-20T08:53:01.433Z,52.20
2017-10-20T08:55:30.666Z,56.83
2017-10-20T08:57:59.107Z,53.00
2017-10-20T09:00:28.493Z,52.57
2017-10-20T09:02:56.933Z,50.40
2017-10-20T09:05:25.410Z,53.50
2017-10-20T09:07:53.895Z,54.60
2017-10-20T09:10:22.366Z,59.60
2017-10-20T09:12:50.808Z,55.50
2017-10-20T09:15:20.047Z,53.30
2017-10-20T09:17:48.542Z,53.10
2017-10-20T09:20:17.018Z,54.63
2017-10-20T09:22:45.461Z,49.80
2017-10-20T09:25:14.692Z,54.30
2017-10-20T09:27:43.136Z,55.80
2017-10-20T09:30:12.489Z,51.53
2017-10-20T09:32:40.939Z,54.53
2017-10-20T09:35:09.389Z,52.73
2017-10-20T09:37:37.861Z,54.27
2017-10-20T09:40:06.325Z,51.40
2017-10-20T09:42:34.814Z,51.57
2017-10-20T09:45:03.252Z,53.00
2017-10-20T09:47:31.760Z,54.17
2017-10-20T09:50:00.243Z,53.90
2017-10-20T09:52:28.709Z,49.60
2017-10-20T09:54:57.199Z,52.60
2017-10-20T09:57:25.669Z,54.47
2017-10-20T09:59:54.116Z,44.13
2017-10-20T10:02:23.359Z,51.27
2017-10-20T10:04:51.808Z,49.70
2017-10-20T10:07:21.041Z,48.60
2017-10-20T10:09:49.488Z,45.27
2017-10-20T10:12:18.833Z,49.03
2017-10-20T10:14:47.324Z,47.47
2017-10-20T10:17:15.903Z,49.17
2017-10-20T10:19:44.375Z,45.17
2017-10-20T10:22:12.846Z,49.90
2017-10-20T10:24:41.289Z,47.13
2017-10-20T10:27:09.786Z,48.70
2017-10-20T10:29:38.989Z,48.10
2017-10-20T10:32:08.202Z,42.50
2017-10-20T10:34:36.666Z,49.57
2017-10-20T10:37:05.880Z,44.90
2017-10-20T10:39:34.350Z,46.87
2017-10-20T10:42:03.562Z,46.37
2017-10-20T10:44:32.063Z,46.93
2017-10-20T10:47:00.505Z,48.27
2017-10-20T10:49:29.747Z,46.77
2017-10-20T10:51:58.194Z,47.60
2017-10-20T10:54:27.430Z,46.63
2017-10-20T10:56:55.873Z,45.90
2017-10-20T10:59:25.210Z,46.50
2017-10-20T11:01:53.695Z,43.43
2017-10-20T11:04:22.194Z,48.50
2017-10-20T11:07:08.466Z,47.73
2017-10-20T11:09:54.778Z,47.60
2017-10-20T11:12:41.179Z,45.57
2017-10-20T11:15:09.645Z,40.20
2017-10-20T11:17:38.146Z,41.90
2017-10-20T11:20:06.630Z,45.07
2017-10-20T11:22:35.086Z,44.70
2017-10-20T11:25:03.535Z,43.00
2017-10-20T11:27:31.997Z,46.03
2017-10-20T11:30:00.545Z,44.50
2017-10-20T11:32:29.028Z,41.77
2017-10-20T11:34:57.480Z,42.23
2017-10-20T11:37:26.708Z,43.57
2017-10-20T11:39:55.200Z,41.17
2017-10-20T11:42:23.666Z,44.07
2017-10-20T11:44:52.114Z,40.57
2017-10-20T11:47:21.466Z,45.17
2017-10-20T11:49:49.914Z,43.80
2017-10-20T11:52:19.147Z,43.40
2017-10-20T11:54:47.589Z,43.17
2017-10-20T11:57:16.822Z,43.80
2017-10-20T11:59:45.269Z,42.03
2017-10-20T12:02:14.533Z,44.30
2017-10-20T12:04:43.062Z,42.77
2017-10-20T12:07:11.506Z,44.50
2017-10-20T12:09:39.976Z,45.80
2017-10-20T12:12:08.417Z,42.40
2017-10-20T12:14:36.886Z,49.30
2017-10-20T12:17:05.399Z,45.40
2017-10-20T12:19:33.970Z,41.73
2017-10-20T12:22:02.517Z,44.83
2017-10-20T12:24:31.745Z,42.80
2017-10-20T12:27:00.262Z,40.23
2017-10-20T12:29:28.726Z,43.00
2017-10-20T12:31:57.172Z,41.50
2017-10-20T12:34:26.514Z,39.87
2017-10-20T12:36:54.998Z,39.20
2017-10-20T12:39:23.575Z,39.20
2017-10-20T12:41:52.018Z,40.43
2017-10-20T12:44:21.265Z,39.10
2017-10-20T12:46:49.746Z,38.03
2017-10-20T12:49:18.192Z,40.20
2017-10-20T12:51:47.453Z,42.70
2017-10-20T12:54:15.893Z,41.50
2017-10-20T12:56:44.353Z,42.73
2017-10-20T12:59:13.571Z,37.57
2017-10-20T13:01:42.032Z,38.70
2017-10-20T13:04:11.268Z,39.27
2017-10-20T13:06:39.730Z,42.53
2017-10-20T13:09:08.229Z,41.30
2017-10-20T13:11:36.698Z,45.33
2017-10-20T13:14:05.145Z,45.33
2017-10-20T13:16:34.381Z,43.50
2017-10-20T13:19:02.879Z,45.77
2017-10-20T13:21:31.341Z,43.47
2017-10-20T13:23:59.780Z,41.13
2017-10-20T13:26:28.245Z,41.93
2017-10-20T13:28:56.692Z,39.70
2017-10-20T13:31:25.162Z,37.83
2017-10-20T13:33:53.600Z,38.60
2017-10-20T13:36:22.065Z,38.47
2017-10-20T13:38:50.584Z,39.80
2017-10-20T13:41:19.809Z,42.50
2017-10-20T13:43:48.245Z,38.70
2017-10-20T13:46:16.737Z,37.93
2017-10-20T13:48:45.190Z,36.63
2017-10-20T13:51:13.650Z,37.63
2017-10-20T13:53:42.235Z,38.40
2017-10-20T13:56:10.678Z,36.07
2017-10-20T13:58:39.904Z,37.30
2017-10-20T14:01:08.398Z,38.50
2017-10-20T14:03:36.862Z,38.50
2017-10-20T14:06:05.315Z,37.97
2017-10-20T14:08:34.545Z,37.53
2017-10-20T14:11:03.048Z,38.67
2017-10-20T14:13:31.525Z,39.77
2017-10-20T14:15:59.969Z,36.97
2017-10-20T14:18:29.193Z,38.97
2017-10-20T14:20:57.662Z,34.43
2017-10-20T14:23:26.892Z,38.13
2017-10-20T14:25:55.378Z,40.67
2017-10-20T14:28:23.850Z,35.27
2017-10-20T14:30:52.597Z,41.00
2017-10-20T14:33:21.111Z,38.50
2017-10-20T14:35:49.558Z,38.30
2017-10-20T14:38:18.906Z,39.73
2017-10-20T14:40:47.394Z,41.77
2017-10-20T14:43:15.833Z,42.53
2017-10-20T14:45:45.069Z,40.80
2017-10-20T14:48:13.508Z,38.70
2017-10-20T14:50:42.860Z,40.33
2017-10-20T14:53:11.311Z,42.33
2017-10-20T14:55:39.770Z,40.23
2017-10-20T14:58:08.986Z,41.47
2017-10-20T15:00:37.456Z,45.77
2017-10-20T15:03:06.669Z,43.30
2017-10-20T15:05:35.894Z,45.00
2017-10-20T15:08:04.372Z,42.70
2017-10-20T15:10:32.845Z,45.13
2017-10-20T15:13:01.290Z,42.37
2017-10-20T15:15:29.822Z,45.80
2017-10-20T15:17:58.266Z,44.40
2017-10-20T15:20:27.526Z,47.13
2017-10-20T15:22:55.969Z,49.23
2017-10-20T15:25:24.410Z,49.27
2017-10-20T15:27:52.869Z,43.77
2017-10-20T15:30:21.316Z,50.30
2017-10-20T15:32:49.781Z,46.00
2017-10-20T15:35:18.986Z,44.77
2017-10-20T15:37:47.453Z,46.83
2017-10-20T15:40:16.658Z,45.60
2017-10-20T15:42:45.895Z,47.97
2017-10-20T15:45:14.337Z,46.57
2017-10-20T15:47:43.582Z,48.50
2017-10-20T15:50:12.025Z,47.73
2017-10-20T15:52:41.432Z,49.53
2017-10-20T15:55:09.873Z,46.30
2017-10-20T15:57:38.342Z,48.13
2017-10-20T16:00:06.811Z,48.33
2017-10-20T16:02:35.301Z,49.10
2017-10-20T16:05:03.745Z,48.33
2017-10-20T16:07:32.185Z,48.93
2017-10-20T16:10:00.652Z,46.90
2017-10-20T16:12:29.102Z,48.60
2017-10-20T16:14:57.570Z,52.20
2017-10-20T16:17:26.019Z,52.27
2017-10-20T16:19:54.558Z,50.17
2017-10-20T16:22:23.010Z,52.40
2017-10-20T16:24:52.241Z,48.33
2017-10-20T16:27:20.715Z,52.07
2017-10-20T16:29:49.194Z,54.67
2017-10-20T16:32:17.686Z,51.47
2017-10-20T16:34:46.162Z,60.40
2017-10-20T16:37:14.618Z,57.30
2017-10-20T16:39:43.950Z,59.90
2017-10-20T16:42:12.399Z,56.83
2017-10-20T16:44:41.627Z,53.70
2017-10-20T16:47:10.102Z,51.57
2017-10-20T16:49:38.558Z,53.57
2017-10-20T16:52:07.794Z,54.80
2017-10-20T16:54:36.276Z,55.90
2017-10-20T16:57:04.741Z,56.70
2017-10-20T16:59:33.195Z,57.37
2017-10-20T17:02:02.435Z,56.37
2017-10-20T17:04:30.923Z,55.47
2017-10-20T17:06:59.730Z,55.13
2017-10-20T17:09:28.168Z,52.80
2017-10-20T17:11:56.778Z,56.03
2017-10-20T17:14:25.253Z,47.63
2017-10-20T17:16:53.730Z,54.27
2017-10-20T17:19:22.168Z,51.67
2017-10-20T17:21:50.633Z,54.77
2017-10-20T17:24:19.073Z,52.80
2017-10-20T17:26:47.521Z,56.10
2017-10-20T17:29:16.748Z,55.83
2017-10-20T17:31:45.189Z,52.50
2017-10-20T17:34:13.730Z,48.00
2017-10-20T17:36:42.173Z,48.10
2017-10-20T17:39:11.402Z,45.30
2017-10-20T17:41:39.892Z,45.30
2017-10-20T17:44:08.478Z,46.17
2017-10-20T17:46:36.917Z,43.93
2017-10-20T17:49:06.140Z,49.43
2017-10-20T17:51:34.581Z,46.67
2017-10-20T17:54:03.112Z,52.57
2017-10-20T17:56:31.555Z,47.00
2017-10-20T17:59:00.049Z,49.27
2017-10-20T18:01:29.252Z,46.60
2017-10-20T18:03:58.506Z,49.40
2017-10-20T18:06:26.954Z,49.83
2017-10-20T18:08:55.408Z,49.83
2017-10-20T18:11:24.643Z,45.67
2017-10-20T18:13:53.096Z,48.10
2017-10-20T18:16:22.332Z,41.20
2017-10-20T18:18:50.769Z,44.30
2017-10-20T18:21:20.106Z,48.87
2017-10-20T18:23:48.554Z,43.57
2017-10-20T18:26:17.786Z,41.40
2017-10-20T18:28:46.265Z,41.93
2017-10-20T18:31:14.733Z,44.60
2017-10-20T18:33:43.178Z,44.63
2017-10-20T18:36:11.715Z,47.00
2017-10-20T18:38:40.199Z,45.80
2017-10-20T18:41:08.777Z,48.97
2017-10-20T18:43:37.265Z,45.83
2017-10-20T18:46:05.845Z,43.50
2017-10-20T18:48:34.285Z,45.00
2017-10-20T18:51:03.534Z,44.00
2017-10-20T18:53:31.993Z,46.70
2017-10-20T18:56:00.432Z,42.00
2017-10-20T18:58:28.980Z,45.73
2017-10-20T19:00:57.463Z,49.00
2017-10-20T19:03:26.023Z,46.47
2017-10-20T19:05:54.465Z,49.17
2017-10-20T19:08:23.064Z,50.73
2017-10-20T19:10:52.281Z,46.10
2017-10-20T19:13:21.514Z,51.43
2017-10-20T19:15:49.952Z,53.90
2017-10-20T19:18:19.284Z,47.57
2017-10-20T19:20:47.776Z,51.20
2017-10-20T19:23:16.245Z,48.90
2017-10-20T19:25:44.741Z,45.17
2017-10-20T19:28:13.228Z,51.70
2017-10-20T19:30:41.674Z,51.90
2017-10-20T19:33:10.892Z,49.10
2017-10-20T19:35:39.361Z,49.33
2017-10-20T19:38:07.861Z,51.70
2017-10-20T19:40:36.330Z,52.07
2017-10-20T19:43:04.793Z,50.93
2017-10-20T19:45:33.314Z,45.73
2017-10-20T19:48:01.758Z,46.87
2017-10-20T19:50:30.999Z,50.63
2017-10-20T19:52:59.445Z,49.93
2017-10-20T19:55:28.768Z,48.10
2017-10-20T19:57:57.221Z,49.13
2017-10-20T20:00:26.454Z,48.90
2017-10-20T20:02:54.934Z,45.40
2017-10-20T20:05:23.419Z,48.50
2017-10-20T20:07:56.718Z,47.50
2017-10-20T20:10:25.185Z,44.47
2017-10-20T20:12:53.682Z,47.00
2017-10-20T20:15:22.129Z,47.60
2017-10-20T20:17:51.465Z,46.40
2017-10-20T20:20:19.902Z,47.57
2017-10-20T20:22:49.249Z,43.50
2017-10-20T20:25:17.694Z,47.33
2017-10-20T20:27:47.031Z,42.87
2017-10-20T20:30:15.473Z,42.10
2017-10-20T20:32:48.575Z,44.07
2017-10-20T20:35:17.017Z,43.60
2017-10-20T20:37:45.481Z,43.03
2017-10-20T20:40:13.930Z,44.40
2017-10-20T20:42:42.398Z,48.10
2017-10-20T20:45:11.294Z,48.53
2017-10-20T20:47:39.761Z,48.23
2017-10-20T20:50:08.999Z,50.50
2017-10-20T20:52:37.466Z,48.30
2017-10-20T20:55:05.914Z,47.70
2017-10-20T20:57:35.277Z,46.90
2017-10-20T21:00:03.726Z,50.17
2017-10-20T21:02:32.221Z,43.40
2017-10-20T21:05:00.661Z,48.67
2017-10-20T21:07:29.893Z,46.70
2017-10-20T21:09:58.384Z,47.10
2017-10-20T21:12:26.853Z,46.37
2017-10-20T21:14:55.299Z,44.57
2017-10-20T21:17:23.774Z,44.47
2017-10-20T21:19:52.241Z,43.20
2017-10-20T21:22:20.686Z,44.23
2017-10-20T21:24:49.154Z,43.77
2017-10-20T21:27:17.598Z,41.30
2017-10-20T21:29:46.066Z,41.90
2017-10-20T21:32:14.505Z,43.00
2017-10-20T21:34:42.964Z,39.63
2017-10-20T21:37:12.167Z,44.40
2017-10-20T21:39:41.406Z,42.80
2017-10-20T21:42:09.849Z,40.20
2017-10-20T21:44:39.076Z,40.63
2017-10-20T21:47:07.526Z,38.60
2017-10-20T21:49:36.764Z,42.03
2017-10-20T21:52:05.247Z,41.00
2017-10-20T21:54:33.721Z,39.80
2017-10-20T21:57:02.181Z,39.40
2017-10-20T21:59:31.395Z,40.63
2017-10-20T22:01:59.890Z,42.87
2017-10-20T22:04:28.370Z,40.03
2017-10-20T22:06:56.838Z,36.50
2017-10-20T22:09:25.292Z,34.70
2017-10-20T22:11:54.522Z,36.60
2017-10-20T22:14:22.965Z,34.07
2017-10-20T22:16:51.493Z,38.33
2017-10-20T22:19:19.929Z,38.17
2017-10-20T22:21:49.170Z,35.40
2017-10-20T22:24:17.657Z,38.93
2017-10-20T22:26:46.125Z,39.00
2017-10-20T22:29:14.582Z,38.80
2017-10-20T22:31:43.817Z,40.43
2017-10-20T22:34:12.310Z,34.80
2017-10-20T22:36:40.758Z,35.20
2017-10-20T22:39:09.992Z,35.50
2017-10-20T22:41:38.428Z,36.80
2017-10-20T22:44:07.661Z,34.33
2017-10-20T22:46:36.151Z,37.37
2017-10-20T22:49:04.614Z,38.83
2017-10-20T22:51:33.063Z,36.20
2017-10-20T22:54:01.589Z,38.77
2017-10-20T22:56:30.033Z,37.50
2017-10-20T22:58:59.383Z,37.27
2017-10-20T23:01:27.862Z,40.20
2017-10-20T23:03:56.324Z,33.97
2017-10-20T23:06:24.757Z,38.87
2017-10-20T23:08:53.213Z,34.70
2017-10-20T23:11:21.653Z,35.63
2017-10-20T23:13:50.985Z,35.40
2017-10-20T23:16:19.427Z,38.57
2017-10-20T23:18:48.682Z,37.80
2017-10-20T23:21:17.127Z,37.70
2017-10-20T23:23:45.590Z,39.93
2017-10-20T23:26:14.822Z,41.30
2017-10-20T23:28:43.263Z,38.23
2017-10-20T23:31:11.730Z,37.97
2017-10-20T23:33:40.174Z,38.73
2017-10-20T23:36:08.633Z,39.80
2017-10-20T23:38:37.069Z,40.13
2017-10-20T23:41:05.535Z,38.67
2017-10-20T23:43:34.005Z,36.77
2017-10-20T23:46:02.472Z,36.57
2017-10-20T23:48:30.913Z,33.83
2017-10-20T23:50:59.373Z,31.03
2017-10-20T23:53:27.818Z,37.47
2017-10-20T23:55:56.277Z,36.70
2017-10-20T23:58:25.882Z,31.53
